sensor_id;sensor_type;location;lat;lon;timestamp;temperature;humidity
54006;DHT22;39919;38.160;-122.260;2023-05-15T00:00:18;19.30;74.90
54006;DHT22;39919;38.160;-122.260;2023-05-15T00:02:47;19.30;74.70
54006;DHT22;39919;38.160;-122.260;2023-05-15T00:05:18;19.20;74.90
54006;DHT22;39919;38.160;-122.260;2023-05-15T00:07:47;19.20;75.10
54006;DHT22;39919;38.160;-122.260;2023-05-15T00:10:16;19.10;75.20
54006;DHT22;39919;38.160;-122.260;2023-05-15T00:12:45;19.10;75.60
54006;DHT22;39919;38.160;-122.260;2023-05-15T00:15:14;19.10;74.80
54006;DHT22;39919;38.160;-122.260;2023-05-15T00:17:44;19.00;75.20
54006;DHT22;39919;38.160;-122.260;2023-05-15T00:20:13;19.00;75.50
54006;DHT22;39919;38.160;-122.260;2023-05-15T00:22:44;19.00;75.50
54006;DHT22;39919;38.160;-122.260;2023-05-15T00:25:13;19.00;75.00
54006;DHT22;39919;38.160;-122.260;2023-05-15T00:27:42;19.00;74.80
54006;DHT22;39919;38.160;-122.260;2023-05-15T00:30:12;19.00;75.90
54006;DHT22;39919;38.160;-122.260;2023-05-15T00:32:42;18.90;75.60
54006;DHT22;39919;38.160;-122.260;2023-05-15T00:35:11;18.90;74.90
54006;DHT22;39919;38.160;-122.260;2023-05-15T00:37:41;18.90;75.90
54006;DHT22;39919;38.160;-122.260;2023-05-15T00:40:18;18.80;76.20
54006;DHT22;39919;38.160;-122.260;2023-05-15T00:42:48;18.90;76.80
54006;DHT22;39919;38.160;-122.260;2023-05-15T00:45:19;18.80;76.70
54006;DHT22;39919;38.160;-122.260;2023-05-15T00:47:50;18.80;76.00
54006;DHT22;39919;38.160;-122.260;2023-05-15T00:50:19;18.80;76.20
54006;DHT22;39919;38.160;-122.260;2023-05-15T00:52:49;18.80;76.90
54006;DHT22;39919;38.160;-122.260;2023-05-15T00:55:20;18.70;77.10
54006;DHT22;39919;38.160;-122.260;2023-05-15T00:57:53;18.70;76.20
54006;DHT22;39919;38.160;-122.260;2023-05-15T01:00:25;18.60;76.20
54006;DHT22;39919;38.160;-122.260;2023-05-15T01:02:54;18.60;77.10
54006;DHT22;39919;38.160;-122.260;2023-05-15T01:05:23;18.60;76.90
54006;DHT22;39919;38.160;-122.260;2023-05-15T01:07:58;18.60;77.00
54006;DHT22;39919;38.160;-122.260;2023-05-15T01:10:32;18.50;77.50
54006;DHT22;39919;38.160;-122.260;2023-05-15T01:13:02;18.50;77.40
54006;DHT22;39919;38.160;-122.260;2023-05-15T01:15:32;18.50;77.60
54006;DHT22;39919;38.160;-122.260;2023-05-15T01:18:02;18.40;77.60
54006;DHT22;39919;38.160;-122.260;2023-05-15T01:20:46;18.40;77.80
54006;DHT22;39919;38.160;-122.260;2023-05-15T01:23:23;18.30;77.40
54006;DHT22;39919;38.160;-122.260;2023-05-15T01:26:15;18.30;77.90
54006;DHT22;39919;38.160;-122.260;2023-05-15T01:28:58;18.30;77.40
54006;DHT22;39919;38.160;-122.260;2023-05-15T01:31:30;18.20;77.90
54006;DHT22;39919;38.160;-122.260;2023-05-15T01:34:07;18.20;78.50
54006;DHT22;39919;38.160;-122.260;2023-05-15T01:36:41;18.10;78.40
54006;DHT22;39919;38.160;-122.260;2023-05-15T01:39:11;18.10;78.80
54006;DHT22;39919;38.160;-122.260;2023-05-15T01:41:44;18.10;78.70
54006;DHT22;39919;38.160;-122.260;2023-05-15T01:44:18;18.00;79.40
54006;DHT22;39919;38.160;-122.260;2023-05-15T01:46:50;18.00;79.50
54006;DHT22;39919;38.160;-122.260;2023-05-15T01:49:25;18.00;80.00
54006;DHT22;39919;38.160;-122.260;2023-05-15T01:51:57;17.90;80.00
54006;DHT22;39919;38.160;-122.260;2023-05-15T01:54:28;17.90;80.60
54006;DHT22;39919;38.160;-122.260;2023-05-15T01:56:58;17.90;80.90
54006;DHT22;39919;38.160;-122.260;2023-05-15T01:59:29;17.80;80.90
54006;DHT22;39919;38.160;-122.260;2023-05-15T02:01:59;17.70;81.30
54006;DHT22;39919;38.160;-122.260;2023-05-15T02:04:30;17.80;81.10
54006;DHT22;39919;38.160;-122.260;2023-05-15T02:07:01;17.80;81.70
54006;DHT22;39919;38.160;-122.260;2023-05-15T02:09:32;17.70;81.40
54006;DHT22;39919;38.160;-122.260;2023-05-15T02:12:02;17.70;81.70
54006;DHT22;39919;38.160;-122.260;2023-05-15T02:14:34;17.60;82.10
54006;DHT22;39919;38.160;-122.260;2023-05-15T02:17:05;17.50;81.70
54006;DHT22;39919;38.160;-122.260;2023-05-15T02:19:34;17.50;82.60
54006;DHT22;39919;38.160;-122.260;2023-05-15T02:22:03;17.40;82.70
54006;DHT22;39919;38.160;-122.260;2023-05-15T02:24:35;17.40;82.80
54006;DHT22;39919;38.160;-122.260;2023-05-15T02:27:09;17.40;83.10
54006;DHT22;39919;38.160;-122.260;2023-05-15T02:30:02;17.30;83.40
54006;DHT22;39919;38.160;-122.260;2023-05-15T02:32:42;17.30;83.80
54006;DHT22;39919;38.160;-122.260;2023-05-15T02:35:21;17.30;84.40
54006;DHT22;39919;38.160;-122.260;2023-05-15T02:37:55;17.20;84.40
54006;DHT22;39919;38.160;-122.260;2023-05-15T02:40:25;17.20;85.10
54006;DHT22;39919;38.160;-122.260;2023-05-15T02:42:56;17.20;85.40
54006;DHT22;39919;38.160;-122.260;2023-05-15T02:45:28;17.10;85.80
54006;DHT22;39919;38.160;-122.260;2023-05-15T02:48:01;17.10;85.80
54006;DHT22;39919;38.160;-122.260;2023-05-15T02:50:34;17.10;85.90
54006;DHT22;39919;38.160;-122.260;2023-05-15T02:53:04;17.00;86.70
54006;DHT22;39919;38.160;-122.260;2023-05-15T02:55:34;16.90;87.00
54006;DHT22;39919;38.160;-122.260;2023-05-15T02:58:03;16.90;87.40
54006;DHT22;39919;38.160;-122.260;2023-05-15T03:00:34;16.90;87.30
54006;DHT22;39919;38.160;-122.260;2023-05-15T03:03:03;16.80;88.30
54006;DHT22;39919;38.160;-122.260;2023-05-15T03:05:33;16.80;89.20
54006;DHT22;39919;38.160;-122.260;2023-05-15T03:08:02;16.80;89.60
54006;DHT22;39919;38.160;-122.260;2023-05-15T03:10:31;16.70;90.00
54006;DHT22;39919;38.160;-122.260;2023-05-15T03:13:00;16.70;90.30
54006;DHT22;39919;38.160;-122.260;2023-05-15T03:15:30;16.70;90.60
54006;DHT22;39919;38.160;-122.260;2023-05-15T03:18:01;16.60;90.70
54006;DHT22;39919;38.160;-122.260;2023-05-15T03:20:30;16.60;90.80
54006;DHT22;39919;38.160;-122.260;2023-05-15T03:22:59;16.50;91.40
54006;DHT22;39919;38.160;-122.260;2023-05-15T03:25:28;16.50;91.60
54006;DHT22;39919;38.160;-122.260;2023-05-15T03:27:57;16.40;91.80
54006;DHT22;39919;38.160;-122.260;2023-05-15T03:30:27;16.40;92.20
54006;DHT22;39919;38.160;-122.260;2023-05-15T03:32:58;16.40;92.60
54006;DHT22;39919;38.160;-122.260;2023-05-15T03:35:31;16.40;92.80
54006;DHT22;39919;38.160;-122.260;2023-05-15T03:38:01;16.30;93.10
54006;DHT22;39919;38.160;-122.260;2023-05-15T03:40:33;16.30;93.50
54006;DHT22;39919;38.160;-122.260;2023-05-15T03:43:03;16.30;93.80
54006;DHT22;39919;38.160;-122.260;2023-05-15T03:45:41;16.30;93.70
54006;DHT22;39919;38.160;-122.260;2023-05-15T03:48:10;16.20;94.10
54006;DHT22;39919;38.160;-122.260;2023-05-15T03:50:43;16.20;94.10
54006;DHT22;39919;38.160;-122.260;2023-05-15T03:53:12;16.20;94.20
54006;DHT22;39919;38.160;-122.260;2023-05-15T03:55:42;16.10;94.60
54006;DHT22;39919;38.160;-122.260;2023-05-15T03:58:11;16.10;94.80
54006;DHT22;39919;38.160;-122.260;2023-05-15T04:00:42;16.10;94.90
54006;DHT22;39919;38.160;-122.260;2023-05-15T04:05:59;16.00;95.00
54006;DHT22;39919;38.160;-122.260;2023-05-15T04:08:28;16.10;99.90
54006;DHT22;39919;38.160;-122.260;2023-05-15T04:11:00;16.10;99.90
54006;DHT22;39919;38.160;-122.260;2023-05-15T04:13:30;16.00;99.90
54006;DHT22;39919;38.160;-122.260;2023-05-15T04:15:59;16.00;99.90
54006;DHT22;39919;38.160;-122.260;2023-05-15T04:18:29;16.00;99.90
54006;DHT22;39919;38.160;-122.260;2023-05-15T04:21:00;16.00;99.90
54006;DHT22;39919;38.160;-122.260;2023-05-15T04:23:29;16.00;99.90
54006;DHT22;39919;38.160;-122.260;2023-05-15T04:26:00;16.00;99.90
54006;DHT22;39919;38.160;-122.260;2023-05-15T04:28:29;16.00;99.90
54006;DHT22;39919;38.160;-122.260;2023-05-15T04:30:59;15.90;99.90
54006;DHT22;39919;38.160;-122.260;2023-05-15T04:33:28;15.90;97.70
54006;DHT22;39919;38.160;-122.260;2023-05-15T04:36:01;16.00;97.40
54006;DHT22;39919;38.160;-122.260;2023-05-15T04:38:31;15.90;96.90
54006;DHT22;39919;38.160;-122.260;2023-05-15T04:41:01;15.90;96.40
54006;DHT22;39919;38.160;-122.260;2023-05-15T04:43:30;15.90;96.20
54006;DHT22;39919;38.160;-122.260;2023-05-15T04:45:59;15.80;95.30
54006;DHT22;39919;38.160;-122.260;2023-05-15T04:48:28;15.80;94.70
54006;DHT22;39919;38.160;-122.260;2023-05-15T04:50:59;15.80;95.00
54006;DHT22;39919;38.160;-122.260;2023-05-15T04:53:28;15.80;94.60
54006;DHT22;39919;38.160;-122.260;2023-05-15T04:55:57;15.80;94.90
54006;DHT22;39919;38.160;-122.260;2023-05-15T04:58:26;15.70;95.60
54006;DHT22;39919;38.160;-122.260;2023-05-15T05:00:55;15.70;95.70
54006;DHT22;39919;38.160;-122.260;2023-05-15T05:03:24;15.70;95.80
54006;DHT22;39919;38.160;-122.260;2023-05-15T05:05:53;15.70;95.90
54006;DHT22;39919;38.160;-122.260;2023-05-15T05:08:24;15.70;95.70
54006;DHT22;39919;38.160;-122.260;2023-05-15T05:10:55;15.60;95.80
54006;DHT22;39919;38.160;-122.260;2023-05-15T05:13:24;15.60;96.10
54006;DHT22;39919;38.160;-122.260;2023-05-15T05:15:54;15.50;96.30
54006;DHT22;39919;38.160;-122.260;2023-05-15T05:18:26;15.50;96.30
54006;DHT22;39919;38.160;-122.260;2023-05-15T05:20:59;15.50;96.20
54006;DHT22;39919;38.160;-122.260;2023-05-15T05:23:30;15.50;96.50
54006;DHT22;39919;38.160;-122.260;2023-05-15T05:25:59;15.50;96.60
54006;DHT22;39919;38.160;-122.260;2023-05-15T05:28:28;15.40;96.60
54006;DHT22;39919;38.160;-122.260;2023-05-15T05:30:58;15.40;96.60
54006;DHT22;39919;38.160;-122.260;2023-05-15T05:33:28;15.40;96.90
54006;DHT22;39919;38.160;-122.260;2023-05-15T05:35:57;15.40;96.80
54006;DHT22;39919;38.160;-122.260;2023-05-15T05:38:26;15.40;96.90
54006;DHT22;39919;38.160;-122.260;2023-05-15T05:40:57;15.40;97.00
54006;DHT22;39919;38.160;-122.260;2023-05-15T05:43:27;15.30;97.00
54006;DHT22;39919;38.160;-122.260;2023-05-15T05:45:56;15.30;97.00
54006;DHT22;39919;38.160;-122.260;2023-05-15T05:48:26;15.30;97.40
54006;DHT22;39919;38.160;-122.260;2023-05-15T05:50:55;15.30;97.00
54006;DHT22;39919;38.160;-122.260;2023-05-15T05:53:27;15.30;97.30
54006;DHT22;39919;38.160;-122.260;2023-05-15T05:55:58;15.30;96.90
54006;DHT22;39919;38.160;-122.260;2023-05-15T05:58:28;15.30;96.80
54006;DHT22;39919;38.160;-122.260;2023-05-15T06:00:57;15.30;96.70
54006;DHT22;39919;38.160;-122.260;2023-05-15T06:03:26;15.30;96.50
54006;DHT22;39919;38.160;-122.260;2023-05-15T06:05:56;15.40;96.90
54006;DHT22;39919;38.160;-122.260;2023-05-15T06:08:25;15.40;97.10
54006;DHT22;39919;38.160;-122.260;2023-05-15T06:10:54;15.40;97.50
54006;DHT22;39919;38.160;-122.260;2023-05-15T06:13:25;15.40;97.10
54006;DHT22;39919;38.160;-122.260;2023-05-15T06:15:55;15.40;97.10
54006;DHT22;39919;38.160;-122.260;2023-05-15T06:18:24;15.40;97.30
54006;DHT22;39919;38.160;-122.260;2023-05-15T06:20:53;15.40;97.20
54006;DHT22;39919;38.160;-122.260;2023-05-15T06:23:24;15.40;97.20
54006;DHT22;39919;38.160;-122.260;2023-05-15T06:25:54;15.40;96.90
54006;DHT22;39919;38.160;-122.260;2023-05-15T06:28:25;15.40;96.90
54006;DHT22;39919;38.160;-122.260;2023-05-15T06:30:54;15.40;96.70
54006;DHT22;39919;38.160;-122.260;2023-05-15T06:33:23;15.40;96.90
54006;DHT22;39919;38.160;-122.260;2023-05-15T06:35:52;15.40;96.70
54006;DHT22;39919;38.160;-122.260;2023-05-15T06:38:23;15.40;96.30
54006;DHT22;39919;38.160;-122.260;2023-05-15T06:40:52;15.40;96.00
54006;DHT22;39919;38.160;-122.260;2023-05-15T06:43:21;15.40;95.60
54006;DHT22;39919;38.160;-122.260;2023-05-15T06:45:52;15.40;95.10
54006;DHT22;39919;38.160;-122.260;2023-05-15T06:48:21;15.40;94.70
54006;DHT22;39919;38.160;-122.260;2023-05-15T06:50:51;15.40;94.50
54006;DHT22;39919;38.160;-122.260;2023-05-15T06:53:20;15.40;94.20
54006;DHT22;39919;38.160;-122.260;2023-05-15T06:55:49;15.50;94.10
54006;DHT22;39919;38.160;-122.260;2023-05-15T06:58:18;15.50;93.90
54006;DHT22;39919;38.160;-122.260;2023-05-15T07:00:47;15.50;93.80
54006;DHT22;39919;38.160;-122.260;2023-05-15T07:03:18;15.50;93.70
54006;DHT22;39919;38.160;-122.260;2023-05-15T07:05:47;15.40;93.50
54006;DHT22;39919;38.160;-122.260;2023-05-15T07:08:19;15.40;93.30
54006;DHT22;39919;38.160;-122.260;2023-05-15T07:10:48;15.40;93.50
54006;DHT22;39919;38.160;-122.260;2023-05-15T07:13:18;15.40;93.70
54006;DHT22;39919;38.160;-122.260;2023-05-15T07:15:48;15.50;93.80
54006;DHT22;39919;38.160;-122.260;2023-05-15T07:18:18;15.50;93.60
54006;DHT22;39919;38.160;-122.260;2023-05-15T07:20:47;15.50;93.60
54006;DHT22;39919;38.160;-122.260;2023-05-15T07:23:20;15.50;93.60
54006;DHT22;39919;38.160;-122.260;2023-05-15T07:25:59;15.50;93.30
54006;DHT22;39919;38.160;-122.260;2023-05-15T07:28:35;15.50;93.30
54006;DHT22;39919;38.160;-122.260;2023-05-15T07:31:08;15.50;93.60
54006;DHT22;39919;38.160;-122.260;2023-05-15T07:33:40;15.50;93.40
54006;DHT22;39919;38.160;-122.260;2023-05-15T07:36:09;15.60;93.20
54006;DHT22;39919;38.160;-122.260;2023-05-15T07:38:38;15.60;93.10
54006;DHT22;39919;38.160;-122.260;2023-05-15T07:41:08;15.60;93.00
54006;DHT22;39919;38.160;-122.260;2023-05-15T07:43:37;15.60;92.80
54006;DHT22;39919;38.160;-122.260;2023-05-15T07:46:06;15.60;93.00
54006;DHT22;39919;38.160;-122.260;2023-05-15T07:48:35;15.70;92.90
54006;DHT22;39919;38.160;-122.260;2023-05-15T07:51:06;15.60;92.70
54006;DHT22;39919;38.160;-122.260;2023-05-15T07:53:35;15.70;92.60
54006;DHT22;39919;38.160;-122.260;2023-05-15T07:56:05;15.80;92.50
54006;DHT22;39919;38.160;-122.260;2023-05-15T07:58:34;15.70;92.50
54006;DHT22;39919;38.160;-122.260;2023-05-15T08:01:04;15.70;92.40
54006;DHT22;39919;38.160;-122.260;2023-05-15T08:03:33;15.70;92.20
54006;DHT22;39919;38.160;-122.260;2023-05-15T08:06:02;15.80;92.00
54006;DHT22;39919;38.160;-122.260;2023-05-15T08:08:34;15.80;91.80
54006;DHT22;39919;38.160;-122.260;2023-05-15T08:11:03;15.80;91.90
54006;DHT22;39919;38.160;-122.260;2023-05-15T08:13:33;15.80;91.80
54006;DHT22;39919;38.160;-122.260;2023-05-15T08:16:04;15.80;91.60
54006;DHT22;39919;38.160;-122.260;2023-05-15T08:18:33;15.90;91.60
54006;DHT22;39919;38.160;-122.260;2023-05-15T08:21:05;15.90;91.40
54006;DHT22;39919;38.160;-122.260;2023-05-15T08:23:39;15.90;91.30
54006;DHT22;39919;38.160;-122.260;2023-05-15T08:26:08;15.90;91.10
54006;DHT22;39919;38.160;-122.260;2023-05-15T08:28:37;15.90;91.10
54006;DHT22;39919;38.160;-122.260;2023-05-15T08:31:06;15.90;91.00
54006;DHT22;39919;38.160;-122.260;2023-05-15T08:33:35;15.90;90.90
54006;DHT22;39919;38.160;-122.260;2023-05-15T08:36:05;15.90;90.80
54006;DHT22;39919;38.160;-122.260;2023-05-15T08:38:39;15.90;90.80
54006;DHT22;39919;38.160;-122.260;2023-05-15T08:41:17;15.90;90.50
54006;DHT22;39919;38.160;-122.260;2023-05-15T08:43:49;15.90;90.50
54006;DHT22;39919;38.160;-122.260;2023-05-15T08:46:21;15.90;90.70
54006;DHT22;39919;38.160;-122.260;2023-05-15T08:48:55;15.90;90.60
54006;DHT22;39919;38.160;-122.260;2023-05-15T08:51:24;15.80;90.40
54006;DHT22;39919;38.160;-122.260;2023-05-15T08:53:55;15.90;90.40
54006;DHT22;39919;38.160;-122.260;2023-05-15T08:56:25;15.90;90.30
54006;DHT22;39919;38.160;-122.260;2023-05-15T08:58:54;15.80;90.20
54006;DHT22;39919;38.160;-122.260;2023-05-15T09:01:23;15.80;90.30
54006;DHT22;39919;38.160;-122.260;2023-05-15T09:03:53;15.80;90.20
54006;DHT22;39919;38.160;-122.260;2023-05-15T09:06:24;15.80;90.30
54006;DHT22;39919;38.160;-122.260;2023-05-15T09:09:00;15.80;90.30
54006;DHT22;39919;38.160;-122.260;2023-05-15T09:11:31;15.80;90.30
54006;DHT22;39919;38.160;-122.260;2023-05-15T09:14:01;15.80;90.20
54006;DHT22;39919;38.160;-122.260;2023-05-15T09:16:30;15.80;90.10
54006;DHT22;39919;38.160;-122.260;2023-05-15T09:19:00;15.80;90.10
54006;DHT22;39919;38.160;-122.260;2023-05-15T09:21:30;15.80;90.00
54006;DHT22;39919;38.160;-122.260;2023-05-15T09:24:18;15.80;89.90
54006;DHT22;39919;38.160;-122.260;2023-05-15T09:27:01;15.80;90.00
54006;DHT22;39919;38.160;-122.260;2023-05-15T09:29:40;15.80;90.00
54006;DHT22;39919;38.160;-122.260;2023-05-15T09:32:10;15.80;90.00
54006;DHT22;39919;38.160;-122.260;2023-05-15T09:34:40;15.80;90.00
54006;DHT22;39919;38.160;-122.260;2023-05-15T09:37:10;15.80;89.80
54006;DHT22;39919;38.160;-122.260;2023-05-15T09:39:42;15.80;90.00
54006;DHT22;39919;38.160;-122.260;2023-05-15T09:42:13;15.80;89.90
54006;DHT22;39919;38.160;-122.260;2023-05-15T09:44:43;15.80;89.90
54006;DHT22;39919;38.160;-122.260;2023-05-15T09:47:12;15.80;90.00
54006;DHT22;39919;38.160;-122.260;2023-05-15T09:49:45;15.80;89.80
54006;DHT22;39919;38.160;-122.260;2023-05-15T09:52:20;15.80;89.70
54006;DHT22;39919;38.160;-122.260;2023-05-15T09:54:52;15.80;89.60
54006;DHT22;39919;38.160;-122.260;2023-05-15T09:57:22;15.80;90.00
54006;DHT22;39919;38.160;-122.260;2023-05-15T09:59:51;15.80;89.90
54006;DHT22;39919;38.160;-122.260;2023-05-15T10:02:24;15.80;89.50
54006;DHT22;39919;38.160;-122.260;2023-05-15T10:04:57;15.80;89.30
54006;DHT22;39919;38.160;-122.260;2023-05-15T10:07:29;15.80;89.10
54006;DHT22;39919;38.160;-122.260;2023-05-15T10:10:01;15.80;89.20
54006;DHT22;39919;38.160;-122.260;2023-05-15T10:12:31;15.80;89.10
54006;DHT22;39919;38.160;-122.260;2023-05-15T10:15:03;15.80;89.60
54006;DHT22;39919;38.160;-122.260;2023-05-15T10:17:34;15.90;89.80
54006;DHT22;39919;38.160;-122.260;2023-05-15T10:20:04;15.90;89.80
54006;DHT22;39919;38.160;-122.260;2023-05-15T10:22:37;15.90;89.80
54006;DHT22;39919;38.160;-122.260;2023-05-15T10:25:17;15.80;89.50
54006;DHT22;39919;38.160;-122.260;2023-05-15T10:27:50;15.90;89.20
54006;DHT22;39919;38.160;-122.260;2023-05-15T10:30:19;15.90;89.10
54006;DHT22;39919;38.160;-122.260;2023-05-15T10:32:49;15.80;89.00
54006;DHT22;39919;38.160;-122.260;2023-05-15T10:35:19;15.90;89.40
54006;DHT22;39919;38.160;-122.260;2023-05-15T10:37:49;15.90;89.20
54006;DHT22;39919;38.160;-122.260;2023-05-15T10:40:20;15.90;89.40
54006;DHT22;39919;38.160;-122.260;2023-05-15T10:42:52;15.90;89.20
54006;DHT22;39919;38.160;-122.260;2023-05-15T10:45:25;15.90;89.10
54006;DHT22;39919;38.160;-122.260;2023-05-15T10:47:55;15.90;88.80
54006;DHT22;39919;38.160;-122.260;2023-05-15T10:50:26;15.90;88.80
54006;DHT22;39919;38.160;-122.260;2023-05-15T10:52:55;15.90;88.60
54006;DHT22;39919;38.160;-122.260;2023-05-15T10:55:26;15.90;88.30
54006;DHT22;39919;38.160;-122.260;2023-05-15T10:57:56;15.90;88.00
54006;DHT22;39919;38.160;-122.260;2023-05-15T11:00:26;15.90;88.00
54006;DHT22;39919;38.160;-122.260;2023-05-15T11:02:57;15.90;87.80
54006;DHT22;39919;38.160;-122.260;2023-05-15T11:05:26;15.90;87.60
54006;DHT22;39919;38.160;-122.260;2023-05-15T11:08:25;15.90;87.50
54006;DHT22;39919;38.160;-122.260;2023-05-15T11:10:56;15.90;87.40
54006;DHT22;39919;38.160;-122.260;2023-05-15T11:13:25;15.90;87.50
54006;DHT22;39919;38.160;-122.260;2023-05-15T11:15:54;15.90;87.30
54006;DHT22;39919;38.160;-122.260;2023-05-15T11:18:25;15.90;87.20
54006;DHT22;39919;38.160;-122.260;2023-05-15T11:21:06;15.90;87.30
54006;DHT22;39919;38.160;-122.260;2023-05-15T11:23:40;15.90;87.30
54006;DHT22;39919;38.160;-122.260;2023-05-15T11:26:12;15.90;87.20
54006;DHT22;39919;38.160;-122.260;2023-05-15T11:28:42;15.90;87.20
54006;DHT22;39919;38.160;-122.260;2023-05-15T11:31:12;15.90;87.40
54006;DHT22;39919;38.160;-122.260;2023-05-15T11:33:42;15.90;88.20
54006;DHT22;39919;38.160;-122.260;2023-05-15T11:36:11;15.90;87.50
54006;DHT22;39919;38.160;-122.260;2023-05-15T11:38:50;15.90;87.50
54006;DHT22;39919;38.160;-122.260;2023-05-15T11:41:22;15.90;87.30
54006;DHT22;39919;38.160;-122.260;2023-05-15T11:43:58;15.90;87.20
54006;DHT22;39919;38.160;-122.260;2023-05-15T11:46:28;15.90;87.20
54006;DHT22;39919;38.160;-122.260;2023-05-15T11:48:57;15.90;87.30
54006;DHT22;39919;38.160;-122.260;2023-05-15T11:51:27;15.90;87.40
54006;DHT22;39919;38.160;-122.260;2023-05-15T11:53:56;15.90;87.00
54006;DHT22;39919;38.160;-122.260;2023-05-15T11:56:32;15.90;87.90
54006;DHT22;39919;38.160;-122.260;2023-05-15T11:59:04;15.90;87.10
54006;DHT22;39919;38.160;-122.260;2023-05-15T12:01:39;15.90;86.90
54006;DHT22;39919;38.160;-122.260;2023-05-15T12:04:15;15.90;87.00
54006;DHT22;39919;38.160;-122.260;2023-05-15T12:06:45;15.90;87.30
54006;DHT22;39919;38.160;-122.260;2023-05-15T12:09:15;15.90;88.20
54006;DHT22;39919;38.160;-122.260;2023-05-15T12:11:50;15.90;88.10
54006;DHT22;39919;38.160;-122.260;2023-05-15T12:14:26;15.90;88.40
54006;DHT22;39919;38.160;-122.260;2023-05-15T12:16:59;15.90;88.30
54006;DHT22;39919;38.160;-122.260;2023-05-15T12:19:30;15.90;89.20
54006;DHT22;39919;38.160;-122.260;2023-05-15T12:22:03;15.90;89.60
54006;DHT22;39919;38.160;-122.260;2023-05-15T12:24:32;15.90;89.90
54006;DHT22;39919;38.160;-122.260;2023-05-15T12:27:07;15.90;90.20
54006;DHT22;39919;38.160;-122.260;2023-05-15T12:29:37;15.90;90.20
54006;DHT22;39919;38.160;-122.260;2023-05-15T12:32:08;15.90;90.30
54006;DHT22;39919;38.160;-122.260;2023-05-15T12:34:41;15.90;90.20
54006;DHT22;39919;38.160;-122.260;2023-05-15T12:37:12;15.80;90.00
54006;DHT22;39919;38.160;-122.260;2023-05-15T12:39:50;15.80;90.10
54006;DHT22;39919;38.160;-122.260;2023-05-15T12:42:21;15.80;90.10
54006;DHT22;39919;38.160;-122.260;2023-05-15T12:44:51;15.80;90.00
54006;DHT22;39919;38.160;-122.260;2023-05-15T12:47:26;15.70;90.00
54006;DHT22;39919;38.160;-122.260;2023-05-15T12:49:56;15.70;90.10
54006;DHT22;39919;38.160;-122.260;2023-05-15T12:52:29;15.70;90.00
54006;DHT22;39919;38.160;-122.260;2023-05-15T12:55:03;15.70;90.10
54006;DHT22;39919;38.160;-122.260;2023-05-15T12:57:34;15.60;90.10
54006;DHT22;39919;38.160;-122.260;2023-05-15T13:00:04;15.60;90.20
54006;DHT22;39919;38.160;-122.260;2023-05-15T13:02:34;15.50;90.30
54006;DHT22;39919;38.160;-122.260;2023-05-15T13:05:04;15.50;90.60
54006;DHT22;39919;38.160;-122.260;2023-05-15T13:07:36;15.50;90.40
54006;DHT22;39919;38.160;-122.260;2023-05-15T13:10:15;15.50;90.60
54006;DHT22;39919;38.160;-122.260;2023-05-15T13:12:46;15.40;90.70
54006;DHT22;39919;38.160;-122.260;2023-05-15T13:15:27;15.40;90.80
54006;DHT22;39919;38.160;-122.260;2023-05-15T13:18:00;15.40;90.90
54006;DHT22;39919;38.160;-122.260;2023-05-15T13:20:34;15.40;91.10
54006;DHT22;39919;38.160;-122.260;2023-05-15T13:23:06;15.40;91.00
54006;DHT22;39919;38.160;-122.260;2023-05-15T13:25:36;15.30;91.00
54006;DHT22;39919;38.160;-122.260;2023-05-15T13:28:07;15.30;90.80
54006;DHT22;39919;38.160;-122.260;2023-05-15T13:30:40;15.30;91.10
54006;DHT22;39919;38.160;-122.260;2023-05-15T13:33:11;15.30;91.10
54006;DHT22;39919;38.160;-122.260;2023-05-15T13:35:43;15.30;91.30
54006;DHT22;39919;38.160;-122.260;2023-05-15T13:38:12;15.30;91.30
54006;DHT22;39919;38.160;-122.260;2023-05-15T13:40:42;15.30;91.40
54006;DHT22;39919;38.160;-122.260;2023-05-15T13:43:12;15.30;91.50
54006;DHT22;39919;38.160;-122.260;2023-05-15T13:45:45;15.30;91.60
54006;DHT22;39919;38.160;-122.260;2023-05-15T13:48:17;15.30;91.70
54006;DHT22;39919;38.160;-122.260;2023-05-15T13:50:46;15.30;91.90
54006;DHT22;39919;38.160;-122.260;2023-05-15T13:53:15;15.30;91.90
54006;DHT22;39919;38.160;-122.260;2023-05-15T13:55:44;15.30;92.10
54006;DHT22;39919;38.160;-122.260;2023-05-15T13:58:15;15.30;92.00
54006;DHT22;39919;38.160;-122.260;2023-05-15T14:00:45;15.30;92.10
54006;DHT22;39919;38.160;-122.260;2023-05-15T14:03:14;15.40;92.20
54006;DHT22;39919;38.160;-122.260;2023-05-15T14:05:43;15.40;92.20
54006;DHT22;39919;38.160;-122.260;2023-05-15T14:08:12;15.40;92.20
54006;DHT22;39919;38.160;-122.260;2023-05-15T14:10:41;15.50;92.10
54006;DHT22;39919;38.160;-122.260;2023-05-15T14:13:10;15.50;92.00
54006;DHT22;39919;38.160;-122.260;2023-05-15T14:15:41;15.50;91.90
54006;DHT22;39919;38.160;-122.260;2023-05-15T14:18:10;15.60;91.90
54006;DHT22;39919;38.160;-122.260;2023-05-15T14:20:40;15.60;92.10
54006;DHT22;39919;38.160;-122.260;2023-05-15T14:23:09;15.70;92.10
54006;DHT22;39919;38.160;-122.260;2023-05-15T14:25:44;15.70;91.80
54006;DHT22;39919;38.160;-122.260;2023-05-15T14:28:13;15.70;91.70
54006;DHT22;39919;38.160;-122.260;2023-05-15T14:30:44;15.70;91.50
54006;DHT22;39919;38.160;-122.260;2023-05-15T14:33:13;15.80;91.40
54006;DHT22;39919;38.160;-122.260;2023-05-15T14:35:42;15.90;91.30
54006;DHT22;39919;38.160;-122.260;2023-05-15T14:38:12;15.90;91.10
54006;DHT22;39919;38.160;-122.260;2023-05-15T14:40:41;16.00;91.00
54006;DHT22;39919;38.160;-122.260;2023-05-15T14:43:10;16.00;90.80
54006;DHT22;39919;38.160;-122.260;2023-05-15T14:45:51;16.00;90.70
54006;DHT22;39919;38.160;-122.260;2023-05-15T14:48:20;16.10;90.50
54006;DHT22;39919;38.160;-122.260;2023-05-15T14:50:49;16.20;90.40
54006;DHT22;39919;38.160;-122.260;2023-05-15T14:53:19;16.20;90.10
54006;DHT22;39919;38.160;-122.260;2023-05-15T14:55:48;16.30;90.10
54006;DHT22;39919;38.160;-122.260;2023-05-15T14:58:23;16.40;89.90
54006;DHT22;39919;38.160;-122.260;2023-05-15T15:00:54;16.40;89.70
54006;DHT22;39919;38.160;-122.260;2023-05-15T15:03:23;16.50;89.00
54006;DHT22;39919;38.160;-122.260;2023-05-15T15:05:52;16.60;88.00
54006;DHT22;39919;38.160;-122.260;2023-05-15T15:08:21;16.70;87.10
54006;DHT22;39919;38.160;-122.260;2023-05-15T15:10:51;16.80;86.70
54006;DHT22;39919;38.160;-122.260;2023-05-15T15:13:20;16.90;86.00